Time;durP1;ratioP1;P1;durP2;ratioP2;P2;SDS_P1;SDS_P2;PMS_P1;PMS_P2;Temp;Humidity;BMP_temperature;BMP_pressure;BME280_temperature;BME280_humidity;BME280_pressure;Samples;Min_cycle;Max_cycle;Signal;HPM_P1;HPM_P2
2022/12/07 00:01:22;;;;;;;13.48;5.15;;;4.50;99.90;;;;;;5051429;28;20037;-72
2022/12/07 00:03:50;;;;;;;13.98;6.90;;;4.50;99.90;;;;;;5087294;28;20109;-72
2022/12/07 00:06:17;;;;;;;11.52;4.20;;;4.50;99.90;;;;;;5053182;28;20047;-72
2022/12/07 00:08:44;;;;;;;8.10;3.85;;;4.50;99.90;;;;;;5056107;28;20442;-72
2022/12/07 00:11:20;;;;;;;7.07;3.42;;;4.50;99.90;;;;;;5058440;28;20036;-72
2022/12/07 00:13:51;;;;;;;8.05;3.20;;;4.50;99.90;;;;;;5048657;28;20044;-72
2022/12/07 00:16:19;;;;;;;8.23;2.95;;;4.40;99.90;;;;;;5058505;28;20028;-72
2022/12/07 00:18:45;;;;;;;8.48;3.10;;;4.40;99.90;;;;;;5059272;28;20102;-72
2022/12/07 00:21:16;;;;;;;8.63;3.20;;;4.40;99.90;;;;;;5053182;28;20048;-72
2022/12/07 00:23:44;;;;;;;8.25;3.15;;;4.40;99.90;;;;;;5088968;28;20037;-72
2022/12/07 00:26:18;;;;;;;8.10;2.83;;;4.40;99.90;;;;;;5052498;28;20055;-72
2022/12/07 00:28:55;;;;;;;8.52;3.22;;;4.30;99.90;;;;;;5053804;28;20045;-72
2022/12/07 00:31:24;;;;;;;10.18;3.15;;;4.30;99.90;;;;;;5051422;28;20534;-72
2022/12/07 00:33:50;;;;;;;7.93;2.83;;;4.30;99.90;;;;;;5057658;28;20044;-72
2022/12/07 00:36:18;;;;;;;11.40;2.60;;;4.20;99.90;;;;;;5061790;28;20090;-72
2022/12/07 00:38:44;;;;;;;8.65;2.90;;;4.20;99.90;;;;;;5052851;28;20476;-72
2022/12/07 00:41:16;;;;;;;10.60;3.22;;;4.20;99.90;;;;;;5055989;28;20056;-72
2022/12/07 00:43:43;;;;;;;8.65;2.50;;;4.20;99.90;;;;;;5057032;28;20052;-72
2022/12/07 00:46:10;;;;;;;9.93;2.53;;;4.20;99.90;;;;;;5082689;28;20048;-72
2022/12/07 00:48:36;;;;;;;6.75;2.00;;;4.20;99.90;;;;;;5059832;28;20077;-73
2022/12/07 00:51:02;;;;;;;10.35;2.53;;;4.20;99.90;;;;;;5058148;28;20048;-72
2022/12/07 00:53:28;;;;;;;11.95;2.47;;;4.10;99.90;;;;;;5056603;28;20365;-72
2022/12/07 00:55:55;;;;;;;8.35;2.90;;;4.10;99.90;;;;;;5057329;28;20668;-72
2022/12/07 00:58:21;;;;;;;10.07;2.33;;;4.10;99.90;;;;;;5055766;28;20056;-72
2022/12/07 01:00:46;;;;;;;8.38;2.53;;;4.10;99.90;;;;;;5064337;28;20399;-72
2022/12/07 01:03:14;;;;;;;8.95;2.42;;;4.10;99.90;;;;;;5058424;28;20860;-72
2022/12/07 01:05:39;;;;;;;9.43;2.03;;;4.00;99.90;;;;;;5062279;28;20037;-72
2022/12/07 01:08:06;;;;;;;7.25;2.22;;;4.00;99.90;;;;;;5055271;28;20045;-72
2022/12/07 01:10:32;;;;;;;8.30;2.35;;;4.00;99.90;;;;;;5063596;28;20053;-72
2022/12/07 01:12:58;;;;;;;10.75;2.80;;;4.00;99.90;;;;;;5059718;28;20052;-72
2022/12/07 01:15:24;;;;;;;9.95;2.50;;;4.00;99.90;;;;;;5060012;28;20041;-72
2022/12/07 01:17:50;;;;;;;12.20;2.90;;;4.00;99.90;;;;;;5056328;28;20105;-72
2022/12/07 01:20:16;;;;;;;9.25;3.15;;;4.00;99.90;;;;;;5058985;28;20028;-72
2022/12/07 01:22:43;;;;;;;11.77;3.63;;;4.00;99.90;;;;;;5060036;28;20435;-73
2022/12/07 01:25:10;;;;;;;10.60;4.37;;;4.00;99.90;;;;;;5067098;28;20052;-72
2022/12/07 01:27:36;;;;;;;13.82;4.50;;;4.00;99.90;;;;;;5056785;28;20308;-72
2022/12/07 01:30:04;;;;;;;12.40;4.82;;;4.00;99.90;;;;;;5052247;28;20051;-72
2022/12/07 01:32:29;;;;;;;10.32;5.20;;;4.00;99.90;;;;;;5049930;28;20082;-72
2022/12/07 01:34:55;;;;;;;13.55;5.53;;;4.00;99.90;;;;;;5053874;28;20040;-72
2022/12/07 01:37:21;;;;;;;14.70;5.78;;;3.90;99.90;;;;;;5082752;28;20045;-72
2022/12/07 01:39:51;;;;;;;15.35;5.90;;;3.90;99.90;;;;;;5055049;28;20049;-72
2022/12/07 01:42:17;;;;;;;12.68;5.95;;;3.90;99.90;;;;;;5058978;28;20044;-72
2022/12/07 01:45:31;;;;;;;14.90;6.47;;;3.90;99.90;;;;;;5058361;28;20044;-72
2022/12/07 01:47:58;;;;;;;12.40;6.00;;;4.00;99.90;;;;;;5055763;28;20059;-72
2022/12/07 01:50:26;;;;;;;15.02;6.20;;;3.90;99.90;;;;;;5055504;28;20483;-72
2022/12/07 01:52:56;;;;;;;13.77;6.30;;;3.90;99.90;;;;;;5058587;28;20056;-72
2022/12/07 01:55:23;;;;;;;13.10;5.47;;;3.90;99.90;;;;;;5059861;28;21205;-72
2022/12/07 01:57:52;;;;;;;11.52;5.00;;;3.90;99.90;;;;;;5049339;28;20092;-72
2022/12/07 02:00:19;;;;;;;11.15;4.60;;;4.00;99.90;;;;;;5067920;28;20043;-72
2022/12/07 02:03:13;;;;;;;10.57;4.00;;;3.90;99.90;;;;;;5055831;28;20072;-72
2022/12/07 02:05:41;;;;;;;11.00;3.42;;;3.90;99.90;;;;;;5062074;28;20029;-72
2022/12/07 02:08:08;;;;;;;10.88;3.42;;;3.90;99.90;;;;;;5062947;28;20106;-72
2022/12/07 02:10:33;;;;;;;9.50;3.22;;;3.80;99.90;;;;;;5057768;28;20072;-72
2022/12/07 02:13:28;;;;;;;8.55;3.35;;;3.80;99.90;;;;;;5057449;28;20497;-72
2022/12/07 02:16:15;;;;;;;9.63;3.25;;;3.80;99.90;;;;;;5047436;28;20059;-72
2022/12/07 02:18:59;;;;;;;8.57;3.13;;;3.80;99.90;;;;;;5061375;28;20057;-73
2022/12/07 02:21:46;;;;;;;13.25;3.08;;;3.80;99.90;;;;;;5058097;28;20051;-72
2022/12/07 02:24:11;;;;;;;;;;;3.80;99.90;;;;;;5056650;28;20094;-72
2022/12/07 02:27:05;;;;;;;9.88;2.60;;;3.70;99.90;;;;;;5059363;28;20405;-72
2022/12/07 02:29:52;;;;;;;7.70;2.15;;;3.70;99.90;;;;;;5060846;28;20036;-72
2022/12/07 02:32:41;;;;;;;9.27;2.35;;;3.80;99.90;;;;;;5056360;28;20094;-72
2022/12/07 02:35:32;;;;;;;8.63;2.53;;;3.80;99.90;;;;;;5064349;28;20075;-72
2022/12/07 02:38:01;;;;;;;8.55;2.20;;;3.80;99.90;;;;;;5062094;28;20159;-72
2022/12/07 02:40:42;;;;;;;11.50;2.35;;;3.80;99.90;;;;;;5053370;28;20117;-72
2022/12/07 02:43:17;;;;;;;11.25;1.85;;;3.90;99.90;;;;;;5058225;28;20052;-72
2022/12/07 02:45:45;;;;;;;10.35;2.05;;;3.90;99.90;;;;;;5052527;28;20596;-72
2022/12/07 02:48:13;;;;;;;;;;;3.90;99.90;;;;;;5049388;28;20041;-72
2022/12/07 02:50:43;;;;;;;4.57;1.23;;;4.00;99.90;;;;;;5059684;28;19920;-72
2022/12/07 02:53:32;;;;;;;9.27;1.63;;;4.00;99.90;;;;;;5054578;28;20148;-72
2022/12/07 02:56:01;;;;;;;8.38;1.52;;;4.10;99.90;;;;;;5051822;28;20097;-71
2022/12/07 02:59:04;;;;;;;9.30;1.35;;;4.10;99.90;;;;;;5062103;28;20114;-71
2022/12/07 03:01:41;;;;;;;7.72;1.33;;;4.20;99.90;;;;;;5055581;28;20487;-71
2022/12/07 03:04:21;;;;;;;6.85;1.30;;;4.10;99.90;;;;;;5059275;28;20629;-71
2022/12/07 03:06:58;;;;;;;8.40;1.35;;;4.20;99.90;;;;;;5073240;28;20041;-71
2022/12/07 03:09:45;;;;;;;8.38;1.63;;;4.10;99.90;;;;;;5085231;28;20053;-71
2022/12/07 03:12:17;;;;;;;7.03;1.40;;;4.10;99.90;;;;;;5054348;28;20140;-71
2022/12/07 03:14:52;;;;;;;10.50;1.95;;;4.10;99.90;;;;;;5048428;28;20045;-71
2022/12/07 03:17:31;;;;;;;6.72;1.45;;;4.00;99.90;;;;;;5066541;28;20040;-71
2022/12/07 03:20:01;;;;;;;12.73;1.75;;;4.10;99.90;;;;;;5055359;28;20041;-71
2022/12/07 03:22:30;;;;;;;7.30;1.52;;;4.00;99.90;;;;;;5050665;28;20612;-71
2022/12/07 03:25:00;;;;;;;8.20;2.13;;;4.00;99.90;;;;;;5050693;28;20052;-71
2022/12/07 03:27:32;;;;;;;5.80;1.70;;;4.00;99.90;;;;;;5053349;28;20040;-72
2022/12/07 03:30:06;;;;;;;8.02;2.00;;;4.00;99.90;;;;;;5062129;28;20055;-71
2022/12/07 03:32:37;;;;;;;11.20;2.40;;;3.90;99.90;;;;;;5057239;28;20131;-71
2022/12/07 03:35:28;;;;;;;11.77;3.08;;;3.90;99.90;;;;;;5057404;28;20499;-71
2022/12/07 03:38:03;;;;;;;14.60;2.65;;;3.90;99.90;;;;;;5048716;28;20064;-71
2022/12/07 03:40:59;;;;;;;10.57;3.17;;;3.80;99.90;;;;;;5058006;28;20120;-71
2022/12/07 03:43:25;;;;;;;13.45;2.58;;;3.80;99.90;;;;;;5051250;28;20049;-71
2022/12/07 03:46:09;;;;;;;13.93;2.88;;;3.80;99.90;;;;;;5081506;28;20053;-71
2022/12/07 03:48:40;;;;;;;9.65;2.83;;;3.80;99.90;;;;;;5084724;28;20040;-71
2022/12/07 03:51:28;;;;;;;10.85;2.42;;;3.70;99.90;;;;;;5056486;28;20051;-71
2022/12/07 03:54:19;;;;;;;7.63;2.45;;;3.70;99.90;;;;;;5055476;28;20051;-71
2022/12/07 03:56:46;;;;;;;11.77;2.00;;;3.80;99.90;;;;;;5064274;28;20123;-71
2022/12/07 03:59:14;;;;;;;9.50;2.20;;;3.70;99.90;;;;;;5064294;28;20067;-71
2022/12/07 04:01:41;;;;;;;;;;;3.70;99.90;;;;;;5055155;28;20048;-72
2022/12/07 04:04:07;;;;;;;9.43;2.10;;;3.70;99.90;;;;;;5051680;28;20390;-71
2022/12/07 04:06:32;;;;;;;9.75;1.90;;;3.70;99.90;;;;;;5050969;28;20082;-71
2022/12/07 04:08:58;;;;;;;15.10;2.40;;;3.70;99.90;;;;;;5054126;28;20045;-71
2022/12/07 04:11:24;;;;;;;7.70;2.22;;;3.70;99.90;;;;;;5066338;28;20648;-71
2022/12/07 04:16:33;;;;;;;12.80;2.92;;;3.70;99.90;;;;;;5052605;28;20131;-71
2022/12/07 04:18:59;;;;;;;15.38;2.28;;;3.70;99.90;;;;;;5050206;28;20528;-71
2022/12/07 04:21:24;;;;;;;10.65;1.60;;;3.70;99.90;;;;;;5062092;28;20803;-71
2022/12/07 04:23:50;;;;;;;8.18;1.63;;;3.70;99.90;;;;;;5059748;28;20041;-71
2022/12/07 04:26:16;;;;;;;11.02;1.73;;;3.70;99.90;;;;;;5057183;28;20105;-72
2022/12/07 04:28:41;;;;;;;9.25;1.98;;;3.60;99.90;;;;;;5050985;28;20049;-72
2022/12/07 04:31:07;;;;;;;7.20;1.80;;;3.60;99.90;;;;;;5057625;28;20052;-72
2022/12/07 04:33:32;;;;;;;9.55;2.30;;;3.60;99.90;;;;;;5050040;28;20408;-71
2022/12/07 04:35:58;;;;;;;13.43;1.83;;;3.60;99.90;;;;;;5055940;28;20036;-71
2022/12/07 04:38:24;;;;;;;8.02;2.00;;;3.60;99.90;;;;;;5050890;28;20056;-71
2022/12/07 04:40:49;;;;;;;12.15;1.70;;;3.60;99.90;;;;;;5073960;28;20095;-71
2022/12/07 04:43:15;;;;;;;9.70;1.40;;;3.60;99.90;;;;;;5070464;28;20055;-71
2022/12/07 04:45:46;;;;;;;10.02;1.75;;;3.60;99.90;;;;;;5077475;28;20045;-71
2022/12/07 04:48:11;;;;;;;10.63;1.65;;;3.60;99.90;;;;;;5057848;28;21771;-71
2022/12/07 04:50:38;;;;;;;7.72;1.70;;;3.50;99.90;;;;;;5068538;28;20037;-71
2022/12/07 04:53:03;;;;;;;8.35;1.52;;;3.50;99.90;;;;;;5064140;28;20041;-72
2022/12/07 04:55:29;;;;;;;9.00;1.73;;;3.50;99.90;;;;;;5054555;28;20071;-71
2022/12/07 04:57:54;;;;;;;9.20;1.80;;;3.50;99.90;;;;;;5058896;28;20427;-71
2022/12/07 05:00:20;;;;;;;10.95;1.95;;;3.50;99.90;;;;;;5063617;28;20510;-71
2022/12/07 05:02:46;;;;;;;12.93;1.80;;;3.50;99.90;;;;;;5059793;28;20129;-71
2022/12/07 05:05:11;;;;;;;9.52;1.80;;;3.40;99.90;;;;;;5063618;28;20055;-71
2022/12/07 05:07:37;;;;;;;5.25;1.30;;;3.40;99.90;;;;;;5060643;28;20696;-71
2022/12/07 05:10:03;;;;;;;10.32;1.80;;;3.40;99.90;;;;;;5064715;28;20037;-71
2022/12/07 05:12:28;;;;;;;8.50;1.52;;;3.40;99.90;;;;;;5069712;28;20040;-71
2022/12/07 05:14:54;;;;;;;8.20;1.95;;;3.30;99.90;;;;;;5063274;28;20128;-71
2022/12/07 05:17:19;;;;;;;11.15;1.80;;;3.30;99.90;;;;;;5054644;28;20037;-71
2022/12/07 05:19:45;;;;;;;7.18;1.50;;;3.30;99.90;;;;;;5056409;28;20653;-71
2022/12/07 05:22:11;;;;;;;11.48;2.10;;;3.20;99.90;;;;;;5062524;28;20048;-71
2022/12/07 05:24:36;;;;;;;7.10;1.50;;;3.20;99.90;;;;;;5062131;28;20131;-71
2022/12/07 05:27:02;;;;;;;7.50;2.03;;;3.20;99.90;;;;;;5068384;28;20133;-71
2022/12/07 05:29:27;;;;;;;9.27;1.80;;;3.20;99.90;;;;;;5060067;28;20518;-71
2022/12/07 05:31:53;;;;;;;9.57;2.17;;;3.20;99.90;;;;;;5055700;28;20036;-71
2022/12/07 05:34:19;;;;;;;11.77;1.88;;;3.10;99.90;;;;;;5059898;28;20036;-71
2022/12/07 05:36:44;;;;;;;10.02;1.67;;;3.10;99.90;;;;;;5053705;28;20041;-71
2022/12/07 05:39:10;;;;;;;10.23;1.70;;;3.10;99.90;;;;;;5066026;28;20084;-71
2022/12/07 05:44:20;;;;;;;10.80;2.10;;;3.10;99.90;;;;;;5061737;28;20076;-71
2022/12/07 05:46:45;;;;;;;8.38;2.17;;;3.10;99.90;;;;;;5067126;28;20580;-71
2022/12/07 05:49:11;;;;;;;10.07;1.55;;;3.10;99.90;;;;;;5062042;28;20053;-71
2022/12/07 05:51:37;;;;;;;9.27;2.13;;;3.10;99.90;;;;;;5062990;28;20340;-71
2022/12/07 05:54:03;;;;;;;8.68;1.48;;;3.10;99.90;;;;;;5061971;28;20123;-71
2022/12/07 05:56:28;;;;;;;13.57;2.00;;;3.10;99.90;;;;;;5054623;28;20041;-71
2022/12/07 06:01:39;;;;;;;8.43;1.63;;;3.20;99.90;;;;;;5061896;28;20411;-71
2022/12/07 06:04:05;;;;;;;11.50;1.90;;;3.20;99.90;;;;;;5060729;28;20044;-71
2022/12/07 06:06:31;;;;;;;10.05;1.63;;;3.20;99.90;;;;;;5064633;28;20128;-71
2022/12/07 06:08:56;;;;;;;10.45;1.70;;;3.20;99.90;;;;;;5053926;28;20049;-71
2022/12/07 06:14:06;;;;;;;10.10;1.40;;;3.30;99.90;;;;;;5051012;28;20136;-71
2022/12/07 06:16:32;;;;;;;9.85;2.40;;;3.30;99.90;;;;;;5061982;28;20032;-71
2022/12/07 06:18:58;;;;;;;7.75;1.77;;;3.30;99.90;;;;;;5050928;28;20698;-71
2022/12/07 06:21:25;;;;;;;14.80;1.77;;;3.30;99.90;;;;;;5054019;28;20123;-71
2022/12/07 06:23:51;;;;;;;8.32;1.42;;;3.30;99.90;;;;;;5057205;28;20036;-71
2022/12/07 06:26:16;;;;;;;10.07;1.35;;;3.30;99.90;;;;;;5049923;28;20040;-71
2022/12/07 06:28:42;;;;;;;8.77;1.80;;;3.30;99.90;;;;;;5058001;28;20048;-71
2022/12/07 06:31:08;;;;;;;7.13;1.48;;;3.30;99.90;;;;;;5066282;28;20028;-71
2022/12/07 06:33:34;;;;;;;8.02;2.08;;;3.20;99.90;;;;;;5064212;28;20495;-71
2022/12/07 06:35:59;;;;;;;10.77;1.83;;;3.30;99.90;;;;;;5056050;28;20063;-71
2022/12/07 06:38:25;;;;;;;7.43;1.48;;;3.20;99.90;;;;;;5057670;28;20032;-71
2022/12/07 06:40:51;;;;;;;10.60;1.75;;;3.20;99.90;;;;;;5059050;28;20546;-71
2022/12/07 06:43:16;;;;;;;10.88;1.80;;;3.20;99.90;;;;;;5060741;28;20449;-71
2022/12/07 06:45:42;;;;;;;6.57;1.63;;;3.20;99.90;;;;;;5055166;28;20039;-70
2022/12/07 06:48:08;;;;;;;9.15;1.80;;;3.10;99.90;;;;;;5050481;28;20049;-72
2022/12/07 06:50:34;;;;;;;8.30;2.08;;;3.10;99.90;;;;;;5065736;28;20037;-71
2022/12/07 06:52:59;;;;;;;7.40;2.42;;;3.10;99.90;;;;;;5070314;28;20409;-72
2022/12/07 06:55:25;;;;;;;11.63;1.98;;;3.10;99.90;;;;;;5069218;28;20403;-71
2022/12/07 06:57:51;;;;;;;13.15;2.03;;;3.00;99.90;;;;;;5053487;28;20642;-72
2022/12/07 07:00:17;;;;;;;8.75;1.50;;;3.00;99.90;;;;;;5055228;28;20060;-72
2022/12/07 07:02:43;;;;;;;8.68;2.03;;;3.00;99.90;;;;;;5070948;28;20045;-72
2022/12/07 07:05:09;;;;;;;13.00;2.20;;;3.00;99.90;;;;;;5085757;28;20049;-72
2022/12/07 07:07:35;;;;;;;8.63;1.75;;;2.90;99.90;;;;;;5058414;28;20658;-72
2022/12/07 07:10:01;;;;;;;8.55;1.80;;;2.90;99.90;;;;;;5057607;28;20450;-72
2022/12/07 07:12:27;;;;;;;9.25;1.60;;;2.90;99.90;;;;;;5054491;28;20037;-72
2022/12/07 07:14:52;;;;;;;8.98;1.75;;;2.90;99.90;;;;;;5057604;28;20072;-73
2022/12/07 07:17:18;;;;;;;9.77;1.88;;;2.90;99.90;;;;;;5059101;28;20041;-72
2022/12/07 07:19:44;;;;;;;7.18;1.63;;;2.90;99.90;;;;;;5075435;28;20040;-72
2022/12/07 07:22:10;;;;;;;9.00;1.88;;;2.90;99.90;;;;;;5056028;28;20056;-72
2022/12/07 07:24:36;;;;;;;13.68;2.22;;;2.90;99.90;;;;;;5060062;28;20048;-72
2022/12/07 07:27:02;;;;;;;8.15;1.80;;;2.90;99.90;;;;;;5060595;28;20155;-72
2022/12/07 07:29:28;;;;;;;9.85;2.03;;;3.00;99.90;;;;;;5090151;28;20403;-72
2022/12/07 07:31:53;;;;;;;9.10;2.08;;;3.00;99.90;;;;;;5074736;28;21325;-72
2022/12/07 07:34:19;;;;;;;12.80;2.10;;;3.00;99.90;;;;;;5056715;28;20089;-72
2022/12/07 07:36:45;;;;;;;12.85;2.33;;;3.00;99.90;;;;;;5052603;28;20060;-72
2022/12/07 07:39:12;;;;;;;7.88;2.08;;;3.00;99.90;;;;;;5055647;28;20036;-73
2022/12/07 07:41:38;;;;;;;12.32;2.08;;;3.00;99.90;;;;;;5053675;28;20084;-72
2022/12/07 07:44:04;;;;;;;8.02;2.03;;;3.00;99.90;;;;;;5055976;28;20071;-72
2022/12/07 07:46:30;;;;;;;9.50;2.15;;;3.10;99.90;;;;;;5069175;28;20429;-73
2022/12/07 07:48:55;;;;;;;11.68;2.60;;;3.00;99.90;;;;;;5056044;28;20052;-72
2022/12/07 07:51:21;;;;;;;9.07;1.92;;;3.00;99.90;;;;;;5062983;28;20045;-72
2022/12/07 07:53:47;;;;;;;8.68;1.95;;;3.10;99.90;;;;;;5060821;28;20052;-72
2022/12/07 07:56:13;;;;;;;10.75;2.45;;;3.10;99.90;;;;;;5059497;28;20396;-72
2022/12/07 07:58:39;;;;;;;6.90;1.65;;;3.10;99.90;;;;;;5058673;28;20049;-72
2022/12/07 08:01:09;;;;;;;7.75;1.40;;;3.10;99.90;;;;;;5060457;28;20036;-72
2022/12/07 08:03:35;;;;;;;13.43;2.08;;;3.20;99.90;;;;;;5092664;28;20048;-72
2022/12/07 08:06:03;;;;;;;8.57;1.80;;;3.20;99.90;;;;;;5061119;28;20591;-72
2022/12/07 08:08:29;;;;;;;8.32;1.98;;;3.20;99.90;;;;;;5054902;28;20368;-73
2022/12/07 08:10:55;;;;;;;11.00;2.40;;;3.20;99.90;;;;;;5057911;28;20203;-73
2022/12/07 08:13:21;;;;;;;9.60;1.77;;;3.20;99.90;;;;;;5058890;28;20526;-72
2022/12/07 08:15:47;;;;;;;9.93;1.70;;;3.30;99.90;;;;;;5058010;28;20598;-72
2022/12/07 08:18:14;;;;;;;7.72;1.55;;;3.30;99.90;;;;;;5054508;28;20043;-72
2022/12/07 08:20:41;;;;;;;9.38;1.70;;;3.30;99.90;;;;;;5054743;28;20048;-72
2022/12/07 08:23:08;;;;;;;8.03;1.73;;;3.30;99.90;;;;;;5058075;28;20037;-73
2022/12/07 08:25:34;;;;;;;8.40;1.70;;;3.30;99.90;;;;;;5060065;28;20055;-72
2022/12/07 08:28:00;;;;;;;12.23;1.88;;;3.30;99.90;;;;;;5057404;28;20048;-75
2022/12/07 08:30:27;;;;;;;8.80;1.75;;;3.40;99.90;;;;;;5092997;28;20036;-75
2022/12/07 08:32:53;;;;;;;9.25;1.70;;;3.40;99.90;;;;;;5051814;28;20060;-75
2022/12/07 08:35:19;;;;;;;6.70;1.58;;;3.40;99.90;;;;;;5054113;28;20150;-76
2022/12/07 08:37:45;;;;;;;7.00;1.40;;;3.40;99.90;;;;;;5071511;28;20337;-72
2022/12/07 08:40:15;;;;;;;8.48;1.55;;;3.40;99.90;;;;;;5063061;28;20053;-75
2022/12/07 08:42:44;;;;;;;11.05;1.58;;;3.50;99.90;;;;;;5063219;28;20040;-78
2022/12/07 08:45:13;;;;;;;6.63;1.25;;;3.50;99.90;;;;;;5065645;28;20530;-81
2022/12/07 08:47:43;;;;;;;6.47;1.60;;;3.50;99.90;;;;;;5081383;28;20514;-76
2022/12/07 08:50:11;;;;;;;12.48;2.00;;;3.50;99.90;;;;;;5063616;28;20429;-75
2022/12/07 08:52:37;;;;;;;9.85;2.03;;;3.50;99.90;;;;;;5064044;28;20048;-73
2022/12/07 08:55:04;;;;;;;9.88;1.90;;;3.50;99.90;;;;;;5063272;28;20116;-75
2022/12/07 08:57:33;;;;;;;7.28;1.77;;;3.50;99.90;;;;;;5094214;28;20448;-81
2022/12/07 08:59:59;;;;;;;12.27;1.95;;;3.50;99.90;;;;;;5064991;28;20136;-83
2022/12/07 09:02:24;;;;;;;11.38;1.98;;;3.60;99.90;;;;;;5062087;28;20521;-75
2022/12/07 09:04:50;;;;;;;11.23;2.00;;;3.60;99.90;;;;;;5065583;28;20059;-76
2022/12/07 09:07:16;;;;;;;9.82;2.00;;;3.60;99.90;;;;;;5080416;28;20098;-74
2022/12/07 09:09:41;;;;;;;9.13;2.00;;;3.60;99.90;;;;;;5070998;28;20428;-76
2022/12/07 09:12:08;;;;;;;8.80;1.70;;;3.60;99.90;;;;;;5060765;28;20040;-80
2022/12/07 09:14:34;;;;;;;10.00;2.27;;;3.60;99.90;;;;;;5065690;28;20048;-84
2022/12/07 09:17:10;;;;;;;10.60;2.50;;;3.60;99.90;;;;;;5062449;28;20048;-77
2022/12/07 09:19:36;;;;;;;5.78;2.40;;;3.60;99.90;;;;;;5066571;28;20044;-77
2022/12/07 09:22:02;;;;;;;9.85;2.40;;;3.60;99.90;;;;;;5066412;28;20036;-76
2022/12/07 09:24:28;;;;;;;9.35;2.00;;;3.60;99.90;;;;;;5062733;28;20036;-76
2022/12/07 09:26:54;;;;;;;9.40;2.92;;;3.60;99.90;;;;;;5062976;28;20475;-71
2022/12/07 09:29:19;;;;;;;14.30;2.00;;;3.70;99.90;;;;;;5060220;28;20044;-72
2022/12/07 09:31:45;;;;;;;11.18;2.33;;;3.80;99.90;;;;;;5070735;28;20451;-72
2022/12/07 09:34:11;;;;;;;9.55;2.08;;;3.80;99.90;;;;;;5068016;28;20683;-77
2022/12/07 09:36:36;;;;;;;10.93;2.40;;;3.90;99.90;;;;;;5069211;28;20120;-77
2022/12/07 09:39:04;;;;;;;10.13;2.47;;;4.00;99.90;;;;;;5070367;28;20055;-77
2022/12/07 09:41:31;;;;;;;6.13;1.88;;;4.00;99.90;;;;;;5069036;28;20613;-77
2022/12/07 09:44:06;;;;;;;7.20;2.58;;;4.10;99.90;;;;;;5065850;28;20486;-78
2022/12/07 09:46:38;;;;;;;7.15;1.77;;;4.10;99.90;;;;;;5060966;28;20051;-77
2022/12/07 09:49:05;;;;;;;9.95;2.60;;;4.10;99.90;;;;;;5066893;28;20056;-78
2022/12/07 09:51:31;;;;;;;12.07;2.35;;;4.10;99.90;;;;;;5069271;28;20044;-77
2022/12/07 09:53:58;;;;;;;9.68;2.17;;;4.10;99.90;;;;;;5051698;28;20170;-77
2022/12/07 09:56:24;;;;;;;8.48;2.20;;;4.20;99.90;;;;;;5052644;28;20041;-78
2022/12/07 09:59:00;;;;;;;10.63;2.63;;;4.20;99.90;;;;;;5060415;28;20052;-80
2022/12/07 10:01:30;;;;;;;12.45;2.03;;;4.30;99.90;;;;;;5063421;28;20045;-74
2022/12/07 10:04:08;;;;;;;11.27;2.30;;;4.40;99.90;;;;;;5069536;28;20041;-74
2022/12/07 10:06:34;;;;;;;8.85;2.35;;;4.40;99.90;;;;;;5065890;28;20094;-69
2022/12/07 10:09:00;;;;;;;9.50;2.40;;;4.50;99.90;;;;;;5064984;28;20501;-71
2022/12/07 10:11:26;;;;;;;9.73;2.47;;;4.60;99.90;;;;;;5062664;28;20050;-75
2022/12/07 10:13:55;;;;;;;10.43;2.45;;;4.60;99.90;;;;;;5070334;28;20071;-75
2022/12/07 10:16:24;;;;;;;5.95;2.30;;;4.70;99.90;;;;;;5063500;28;20047;-76
2022/12/07 10:18:50;;;;;;;11.77;2.00;;;4.80;99.90;;;;;;5073519;28;20499;-76
2022/12/07 10:21:23;;;;;;;11.95;2.88;;;4.70;99.90;;;;;;5068838;28;20525;-77
2022/12/07 10:24:10;;;;;;;9.50;2.15;;;4.70;99.90;;;;;;5054106;28;20411;-75
2022/12/07 10:26:36;;;;;;;10.82;2.63;;;4.80;99.90;;;;;;5061805;28;20045;-75
2022/12/07 10:29:24;;;;;;;9.93;1.88;;;4.80;99.90;;;;;;5058898;28;20052;-76
2022/12/07 10:32:01;;;;;;;11.25;2.00;;;4.80;99.90;;;;;;5063175;28;20071;-72
2022/12/07 10:34:37;;;;;;;8.70;2.20;;;4.80;99.90;;;;;;5065363;28;20127;-72
2022/12/07 10:37:12;;;;;;;15.90;2.67;;;4.80;99.90;;;;;;5062517;28;20040;-73
2022/12/07 10:39:50;;;;;;;9.98;2.22;;;4.80;99.90;;;;;;5059362;28;20041;-76
2022/12/07 10:42:26;;;;;;;10.57;2.28;;;4.80;99.90;;;;;;5068250;28;20597;-76
2022/12/07 10:45:11;;;;;;;11.98;2.10;;;4.90;99.90;;;;;;5067630;28;20515;-71
2022/12/07 10:47:38;;;;;;;9.35;2.28;;;4.80;99.90;;;;;;5069152;28;20060;-71
2022/12/07 10:50:10;;;;;;;10.85;1.85;;;4.90;99.90;;;;;;5066622;28;20154;-71
2022/12/07 10:53:03;;;;;;;8.20;1.55;;;4.90;99.90;;;;;;5061604;28;20041;-74
2022/12/07 10:55:49;;;;;;;12.25;2.10;;;4.90;99.90;;;;;;5067952;28;20044;-74
2022/12/07 10:58:31;;;;;;;7.43;1.65;;;4.90;99.90;;;;;;5065160;28;20047;-75
2022/12/07 11:01:18;;;;;;;7.63;1.75;;;5.00;99.90;;;;;;5064152;28;20052;-77
2022/12/07 11:03:58;;;;;;;8.40;1.58;;;4.90;99.90;;;;;;5082465;28;20072;-77
2022/12/07 11:06:29;;;;;;;9.85;1.63;;;4.90;99.90;;;;;;5067490;28;20049;-75
2022/12/07 11:09:04;;;;;;;9.95;2.05;;;4.90;99.90;;;;;;5068174;28;20515;-77
2022/12/07 11:11:50;;;;;;;6.05;1.50;;;4.90;99.90;;;;;;5068890;28;20040;-76
2022/12/07 11:14:32;;;;;;;9.73;1.90;;;5.00;99.90;;;;;;5064920;28;20052;-75
2022/12/07 11:17:11;;;;;;;8.40;1.70;;;5.00;99.90;;;;;;5067859;28;20044;-75
2022/12/07 11:19:53;;;;;;;9.15;2.00;;;5.00;99.90;;;;;;5066961;28;20044;-74
2022/12/07 11:22:40;;;;;;;10.65;1.98;;;5.00;99.90;;;;;;5060136;28;20558;-74
2022/12/07 11:26:11;;;;;;;10.38;2.00;;;5.10;99.90;;;;;;5057252;28;20041;-73
2022/12/07 11:29:22;;;;;;;9.15;2.00;;;5.10;99.90;;;;;;5015397;28;20052;-72
2022/12/07 11:32:09;;;;;;;9.60;1.92;;;5.10;99.90;;;;;;5061957;28;20052;-73
2022/12/07 11:34:50;;;;;;;12.40;2.20;;;5.10;99.90;;;;;;5065960;28;20364;-73
2022/12/07 11:37:21;;;;;;;9.23;2.00;;;5.10;99.90;;;;;;5059916;28;20047;-74
2022/12/07 11:39:54;;;;;;;11.48;2.00;;;5.10;99.90;;;;;;5065142;28;20036;-74
2022/12/07 11:42:25;;;;;;;9.50;2.22;;;5.10;99.90;;;;;;5056573;28;20045;-76
2022/12/07 11:44:57;;;;;;;8.00;1.92;;;5.10;99.90;;;;;;5066904;28;20045;-78
2022/12/07 11:48:03;;;;;;;10.57;2.50;;;5.10;99.90;;;;;;5063938;28;20041;-76
2022/12/07 11:50:35;;;;;;;;;;;5.10;99.90;;;;;;5049814;28;20152;-73
2022/12/07 11:53:23;;;;;;;5.57;1.52;;;5.10;99.90;;;;;;5059080;28;19931;-68
2022/12/07 11:56:05;;;;;;;10.68;2.33;;;5.10;99.90;;;;;;5056725;28;20051;-68
2022/12/07 11:58:39;;;;;;;9.70;1.83;;;5.20;99.90;;;;;;5062803;28;20495;-71
2022/12/07 12:01:17;;;;;;;10.52;2.17;;;5.20;99.90;;;;;;5066327;28;20499;-69
2022/12/07 12:03:52;;;;;;;;;;;5.30;99.90;;;;;;5060323;28;20539;-69
2022/12/07 12:06:18;;;;;;;12.43;1.90;;;5.30;99.90;;;;;;5057598;28;19970;-70
2022/12/07 12:09:21;;;;;;;8.63;2.45;;;5.30;99.90;;;;;;5060494;28;20464;-71
2022/12/07 12:12:07;;;;;;;11.63;2.58;;;5.40;99.90;;;;;;5058556;28;20056;-72
2022/12/07 12:15:04;;;;;;;8.95;2.25;;;5.40;99.90;;;;;;5075230;28;20045;-72
2022/12/07 12:17:38;;;;;;;9.48;2.53;;;5.50;99.90;;;;;;5062824;28;20044;-72
2022/12/07 12:20:26;;;;;;;11.25;2.45;;;5.60;99.90;;;;;;5081248;28;20057;-72
2022/12/07 12:23:14;;;;;;;10.65;1.95;;;5.60;99.90;;;;;;5063787;28;20068;-72
2022/12/07 12:25:42;;;;;;;9.77;2.63;;;5.60;99.90;;;;;;5065386;28;20087;-72
2022/12/07 12:28:19;;;;;;;6.95;2.30;;;5.60;99.90;;;;;;5097641;28;20048;-72
2022/12/07 12:30:44;;;;;;;8.57;2.17;;;5.60;99.90;;;;;;5065442;28;20048;-72
2022/12/07 12:33:15;;;;;;;12.00;2.47;;;5.70;99.90;;;;;;5078402;28;20052;-72
2022/12/07 12:35:41;;;;;;;9.20;2.35;;;5.70;99.90;;;;;;5066419;28;20158;-71
2022/12/07 12:38:30;;;;;;;9.82;2.20;;;5.70;99.90;;;;;;5078949;28;20115;-72
2022/12/07 12:40:57;;;;;;;7.35;1.90;;;5.80;99.90;;;;;;5098594;28;20053;-72
2022/12/07 12:43:48;;;;;;;6.95;1.85;;;5.80;99.90;;;;;;5064237;28;20654;-72
2022/12/07 12:46:29;;;;;;;9.05;1.95;;;5.80;99.90;;;;;;5062187;28;20434;-72
2022/12/07 12:49:13;;;;;;;7.35;2.08;;;5.80;99.90;;;;;;5057313;28;20576;-72
2022/12/07 12:51:44;;;;;;;6.95;1.60;;;5.90;99.90;;;;;;5064621;28;20123;-72
2022/12/07 12:54:25;;;;;;;8.48;1.80;;;5.90;99.90;;;;;;5098840;28;20404;-72
2022/12/07 12:57:03;;;;;;;10.15;2.13;;;5.90;99.90;;;;;;5066239;28;20044;-72
2022/12/07 12:59:55;;;;;;;8.52;2.70;;;5.90;99.90;;;;;;5070233;28;20059;-72
2022/12/07 13:02:23;;;;;;;11.50;2.88;;;5.90;99.90;;;;;;5065205;28;20115;-72
2022/12/07 13:05:01;;;;;;;9.57;2.50;;;5.90;99.90;;;;;;5098846;28;20051;-71
2022/12/07 13:07:51;;;;;;;7.28;1.80;;;5.90;99.90;;;;;;5085463;28;20045;-72
2022/12/07 13:10:34;;;;;;;10.00;1.88;;;5.90;99.90;;;;;;5069202;28;20228;-71
2022/12/07 13:13:13;;;;;;;9.35;2.28;;;5.90;99.90;;;;;;5068028;28;20049;-72
2022/12/07 13:15:43;;;;;;;8.05;2.20;;;5.90;99.90;;;;;;5098124;28;20518;-72
2022/12/07 13:18:27;;;;;;;9.95;2.13;;;5.90;99.90;;;;;;5058953;28;20040;-70
2022/12/07 13:21:08;;;;;;;10.15;2.08;;;5.90;99.90;;;;;;5064056;28;20116;-68
2022/12/07 13:23:37;;;;;;;13.90;2.20;;;5.90;99.90;;;;;;5066505;28;20044;-71
2022/12/07 13:26:16;;;;;;;8.18;2.40;;;5.80;99.90;;;;;;5065566;28;20041;-75
2022/12/07 13:28:51;;;;;;;12.60;2.25;;;5.80;99.90;;;;;;5083298;28;20048;-79